Time;durP1;ratioP1;P1;durP2;ratioP2;P2;SDS_P1;SDS_P2;PMS_P1;PMS_P2;Temp;Humidity;BMP_temperature;BMP_pressure;BME280_temperature;BME280_humidity;BME280_pressure;Samples;Min_cycle;Max_cycle;Signal;HPM_P1;HPM_P2
2023/04/28 00:02:20;;;;;;;25.15;17.40;;;6.00;51.90;;;;;;5052632;27;115976;-84
2023/04/28 00:04:47;;;;;;;28.33;16.60;;;6.00;51.80;;;;;;5066959;27;114831;-84
2023/04/28 00:07:15;;;;;;;24.17;16.80;;;6.00;51.70;;;;;;5049307;27;114749;-84
2023/04/28 00:09:42;;;;;;;21.70;16.13;;;6.00;51.70;;;;;;5049226;27;114474;-84
2023/04/28 00:12:09;;;;;;;24.02;17.27;;;6.00;51.70;;;;;;5057932;27;115999;-84
2023/04/28 00:14:36;;;;;;;21.88;16.15;;;5.90;51.80;;;;;;5087645;27;114977;-83
2023/04/28 00:17:04;;;;;;;24.63;18.38;;;5.90;51.80;;;;;;5086272;27;114909;-85
2023/04/28 00:19:33;;;;;;;21.50;16.25;;;5.90;51.80;;;;;;5087379;27;114539;-86
2023/04/28 00:22:00;;;;;;;20.58;15.75;;;5.90;51.80;;;;;;5080919;27;115704;-86
2023/04/28 00:24:27;;;;;;;21.70;14.80;;;5.80;51.90;;;;;;5015552;27;116858;-85
2023/04/28 00:26:56;;;;;;;22.13;15.27;;;5.80;51.90;;;;;;5082308;27;114718;-85
2023/04/28 00:29:23;;;;;;;21.20;14.73;;;5.90;51.80;;;;;;5049270;27;114539;-84
2023/04/28 00:31:53;;;;;;;21.13;15.60;;;5.90;51.60;;;;;;5049275;27;114255;-85
2023/04/28 00:34:20;;;;;;;23.48;15.30;;;5.90;51.60;;;;;;5047766;27;115872;-85
2023/04/28 00:36:50;;;;;;;23.90;14.82;;;5.90;51.60;;;;;;5034732;27;114572;-85
2023/04/28 00:39:22;;;;;;;19.60;15.00;;;6.00;51.50;;;;;;5030724;27;114602;-86
2023/04/28 00:41:49;;;;;;;22.27;14.30;;;5.90;51.50;;;;;;5032247;27;114598;-86
2023/04/28 00:44:16;;;;;;;22.00;14.48;;;5.90;51.30;;;;;;5066256;27;114984;-83
2023/04/28 00:46:44;;;;;;;26.15;16.67;;;5.90;51.10;;;;;;5034651;27;114684;-84
2023/04/28 00:49:11;;;;;;;23.83;15.40;;;6.00;51.10;;;;;;5067284;27;114405;-84
2023/04/28 00:51:38;;;;;;;24.75;15.88;;;6.00;51.10;;;;;;5014289;27;114762;-83
2023/04/28 00:54:05;;;;;;;22.88;15.20;;;6.00;51.00;;;;;;5047553;27;114939;-84
2023/04/28 00:56:32;;;;;;;22.70;14.50;;;6.00;50.90;;;;;;5031265;27;114837;-85
2023/04/28 00:59:00;;;;;;;22.83;14.98;;;6.00;50.80;;;;;;5049465;27;116308;-86
2023/04/28 01:01:27;;;;;;;21.27;14.68;;;6.00;50.60;;;;;;5066453;27;114231;-85
2023/04/28 01:03:54;;;;;;;20.08;14.40;;;6.00;50.50;;;;;;5064149;27;115415;-85
2023/04/28 01:06:23;;;;;;;22.95;14.65;;;6.00;50.90;;;;;;5051460;27;114836;-85
2023/04/28 01:08:54;;;;;;;19.48;13.98;;;5.90;51.00;;;;;;5069302;27;115388;-84
2023/04/28 01:11:22;;;;;;;22.35;14.95;;;5.90;51.10;;;;;;5086561;27;114454;-84
2023/04/28 01:14:02;;;;;;;23.30;14.60;;;6.00;51.40;;;;;;5067675;27;115321;-84
2023/04/28 01:16:34;;;;;;;21.50;14.77;;;6.00;50.90;;;;;;5083618;27;114633;-83
2023/04/28 01:19:02;;;;;;;22.92;13.15;;;6.00;50.80;;;;;;5051041;27;114264;-83
2023/04/28 01:21:32;;;;;;;22.20;14.38;;;6.00;50.60;;;;;;5069006;27;114307;-84
2023/04/28 01:24:16;;;;;;;20.95;14.48;;;6.00;50.40;;;;;;5084835;27;114883;-84
2023/04/28 01:26:44;;;;;;;22.48;14.93;;;5.90;50.60;;;;;;5088842;27;116305;-85
2023/04/28 01:29:11;;;;;;;27.25;14.93;;;5.90;50.50;;;;;;5090260;27;114315;-86
2023/04/28 01:31:38;;;;;;;23.27;14.95;;;6.00;50.50;;;;;;5068748;27;114409;-87
2023/04/28 01:34:07;;;;;;;23.20;15.35;;;5.90;50.40;;;;;;5085479;27;114880;-84
2023/04/28 01:36:35;;;;;;;21.17;14.18;;;5.90;50.70;;;;;;5085691;27;114844;-84
2023/04/28 01:39:04;;;;;;;18.73;13.82;;;5.90;50.40;;;;;;5089238;27;114328;-84
2023/04/28 01:41:35;;;;;;;19.63;13.63;;;5.90;50.50;;;;;;5088887;27;114274;-84
2023/04/28 01:44:05;;;;;;;19.45;13.52;;;5.90;50.40;;;;;;5085979;27;115422;-85
2023/04/28 01:46:32;;;;;;;17.45;12.90;;;5.90;50.50;;;;;;5084971;27;114623;-84
2023/04/28 01:49:00;;;;;;;18.50;13.02;;;5.90;50.50;;;;;;5035410;27;114539;-83
2023/04/28 01:51:27;;;;;;;19.92;12.98;;;5.90;50.50;;;;;;5087489;27;114150;-83
2023/04/28 01:53:55;;;;;;;23.40;14.52;;;5.90;50.20;;;;;;5085681;27;115468;-82
2023/04/28 01:56:23;;;;;;;17.52;12.68;;;5.80;50.00;;;;;;5067793;27;114624;-82
2023/04/28 01:58:52;;;;;;;23.98;13.13;;;5.80;49.90;;;;;;5069107;27;114272;-82
2023/04/28 02:01:19;;;;;;;20.02;12.65;;;5.80;50.00;;;;;;5069324;27;114447;-83
2023/04/28 02:03:47;;;;;;;17.77;12.63;;;5.70;49.80;;;;;;5068580;27;115609;-84
2023/04/28 02:06:15;;;;;;;17.80;11.73;;;5.70;49.80;;;;;;5068230;27;114647;-85
2023/04/28 02:08:43;;;;;;;23.00;12.82;;;5.70;49.90;;;;;;5068204;27;114250;-84
2023/04/28 02:11:11;;;;;;;17.45;12.75;;;5.70;50.00;;;;;;5080990;27;114377;-83
2023/04/28 02:13:39;;;;;;;18.55;12.25;;;5.70;49.90;;;;;;5051172;27;115549;-85
2023/04/28 02:16:06;;;;;;;19.40;11.35;;;5.60;49.80;;;;;;5012090;27;117576;-84
2023/04/28 02:18:35;;;;;;;18.63;12.80;;;5.60;49.80;;;;;;5066629;27;114447;-85
2023/04/28 02:21:11;;;;;;;21.60;12.27;;;5.60;49.90;;;;;;5051862;27;118312;-84
2023/04/28 02:23:39;;;;;;;19.88;12.20;;;5.60;50.00;;;;;;5068070;27;115014;-84
2023/04/28 02:26:06;;;;;;;17.10;11.75;;;5.60;50.00;;;;;;5084469;27;114658;-84
2023/04/28 02:28:33;;;;;;;17.38;12.75;;;5.50;50.00;;;;;;5086849;27;114196;-84
2023/04/28 02:31:08;;;;;;;20.35;11.68;;;5.50;50.00;;;;;;5069035;27;114531;-85
2023/04/28 02:33:36;;;;;;;18.10;12.27;;;5.60;50.10;;;;;;5084916;27;115806;-85
2023/04/28 02:36:04;;;;;;;17.00;11.40;;;5.50;49.90;;;;;;5068349;27;115145;-85
2023/04/28 02:38:31;;;;;;;20.35;12.80;;;5.60;50.00;;;;;;5052077;27;114401;-85
2023/04/28 02:40:59;;;;;;;15.07;11.45;;;5.60;50.00;;;;;;5006584;27;114247;-83
2023/04/28 02:43:28;;;;;;;17.35;11.63;;;5.60;49.70;;;;;;5050245;27;115520;-84
2023/04/28 02:45:55;;;;;;;15.00;10.38;;;5.50;50.10;;;;;;5062249;27;115122;-83
2023/04/28 02:48:24;;;;;;;17.48;11.02;;;5.50;50.00;;;;;;5030123;27;114514;-85
2023/04/28 02:50:53;;;;;;;18.25;11.45;;;5.50;50.10;;;;;;5034850;27;117090;-86
2023/04/28 02:53:20;;;;;;;17.48;11.27;;;5.50;50.00;;;;;;5010419;27;114862;-86
2023/04/28 02:55:48;;;;;;;15.95;10.95;;;5.50;50.00;;;;;;5046387;27;114790;-86
2023/04/28 02:58:17;;;;;;;17.15;12.25;;;5.50;50.00;;;;;;5031332;27;114424;-85
2023/04/28 03:00:46;;;;;;;14.43;9.98;;;5.50;50.00;;;;;;5047966;27;114525;-84
2023/04/28 03:03:14;;;;;;;15.45;11.30;;;5.50;49.80;;;;;;5046031;27;115379;-84
2023/04/28 03:05:41;;;;;;;18.88;11.00;;;5.50;49.90;;;;;;5022614;27;116139;-84
2023/04/28 03:08:09;;;;;;;14.63;11.35;;;5.50;49.90;;;;;;5048933;27;114477;-84
2023/04/28 03:10:36;;;;;;;15.95;11.52;;;5.50;50.00;;;;;;5027798;27;114406;-85
2023/04/28 03:13:04;;;;;;;15.77;11.13;;;5.50;50.20;;;;;;5030055;27;116576;-84
2023/04/28 03:15:31;;;;;;;18.08;11.43;;;5.50;50.10;;;;;;5049552;27;114859;-84
2023/04/28 03:18:00;;;;;;;17.30;11.65;;;5.60;50.00;;;;;;5027775;27;114590;-84
2023/04/28 03:20:28;;;;;;;15.95;11.27;;;5.60;49.90;;;;;;5065266;27;114120;-85
2023/04/28 03:22:56;;;;;;;16.67;11.80;;;5.60;50.10;;;;;;5045827;27;117499;-85
2023/04/28 03:25:23;;;;;;;17.95;11.63;;;5.70;50.20;;;;;;5046493;27;114696;-84
2023/04/28 03:27:51;;;;;;;16.95;11.75;;;5.70;50.00;;;;;;5031717;27;114481;-84
2023/04/28 03:30:18;;;;;;;18.90;11.63;;;5.70;49.80;;;;;;5050384;27;114532;-84
2023/04/28 03:32:45;;;;;;;14.13;10.40;;;5.80;49.80;;;;;;5048345;27;114886;-84
2023/04/28 03:35:13;;;;;;;16.10;11.07;;;5.70;49.80;;;;;;5049566;27;116477;-84
2023/04/28 03:37:41;;;;;;;17.00;11.40;;;5.80;49.70;;;;;;5050884;27;115649;-84
2023/04/28 03:40:09;;;;;;;16.95;11.55;;;5.80;49.60;;;;;;5067712;27;114210;-84
2023/04/28 03:43:02;;;;;;;17.92;11.68;;;5.80;49.50;;;;;;5018452;27;114975;-84
2023/04/28 03:45:42;;;;;;;15.82;10.50;;;5.80;49.60;;;;;;5050164;27;117836;-84
2023/04/28 03:48:10;;;;;;;16.95;11.25;;;5.80;49.50;;;;;;5067904;27;114544;-85
2023/04/28 03:50:46;;;;;;;16.42;11.05;;;5.80;49.40;;;;;;5014688;27;114349;-84
2023/04/28 03:53:13;;;;;;;15.35;10.20;;;5.90;49.40;;;;;;5053298;27;117172;-84
2023/04/28 03:55:40;;;;;;;15.75;11.75;;;5.90;49.30;;;;;;5049507;27;114551;-84
2023/04/28 03:58:07;;;;;;;16.10;10.30;;;6.00;49.20;;;;;;5066740;27;114293;-84
2023/04/28 04:00:35;;;;;;;15.90;10.85;;;6.10;49.00;;;;;;5048508;27;114974;-84
2023/04/28 04:03:02;;;;;;;17.58;11.18;;;6.20;49.40;;;;;;5020224;27;116206;-86
2023/04/28 04:05:29;;;;;;;13.95;9.15;;;6.30;49.10;;;;;;5048613;27;114637;-83
2023/04/28 04:07:57;;;;;;;14.75;9.90;;;6.50;49.10;;;;;;5049116;27;114480;-85
2023/04/28 04:10:25;;;;;;;17.33;10.38;;;6.70;48.50;;;;;;5083754;27;114338;-87
2023/04/28 04:12:53;;;;;;;14.77;10.23;;;6.80;48.30;;;;;;5048613;27;117166;-84
2023/04/28 04:15:20;;;;;;;15.25;9.80;;;7.00;48.00;;;;;;5031077;27;115512;-85
2023/04/28 04:17:47;;;;;;;13.68;9.65;;;7.20;47.90;;;;;;5034053;27;114710;-85
2023/04/28 04:20:15;;;;;;;18.05;10.63;;;7.20;47.40;;;;;;5055317;27;114505;-85
2023/04/28 04:22:43;;;;;;;18.65;11.18;;;7.20;47.20;;;;;;5032121;27;118553;-85
2023/04/28 04:25:10;;;;;;;17.27;10.77;;;7.40;46.90;;;;;;5046433;27;114586;-84
2023/04/28 04:27:38;;;;;;;23.60;10.45;;;7.30;46.60;;;;;;5053153;27;114351;-83
2023/04/28 04:30:07;;;;;;;18.20;10.50;;;7.30;46.50;;;;;;5071448;27;114592;-84
2023/04/28 04:32:36;;;;;;;16.65;10.40;;;7.30;46.20;;;;;;5051515;27;118520;-83
2023/04/28 04:35:04;;;;;;;16.05;10.50;;;7.30;46.10;;;;;;5069351;27;120190;-83
2023/04/28 04:37:32;;;;;;;16.17;9.88;;;7.30;46.10;;;;;;5086763;27;114116;-83
2023/04/28 04:40:02;;;;;;;14.80;9.40;;;7.30;46.00;;;;;;5071338;27;114303;-84
2023/04/28 04:42:35;;;;;;;15.65;9.90;;;7.30;46.00;;;;;;5069219;27;117168;-84
2023/04/28 04:45:08;;;;;;;12.52;9.40;;;7.20;46.10;;;;;;5086619;27;114597;-84
2023/04/28 04:47:35;;;;;;;13.45;9.45;;;7.30;46.00;;;;;;5087694;27;114156;-85
2023/04/28 04:50:07;;;;;;;13.02;9.07;;;7.20;46.00;;;;;;5075306;27;114429;-84
2023/04/28 04:52:34;;;;;;;16.33;9.38;;;7.30;45.80;;;;;;5056513;27;115646;-86
2023/04/28 04:55:01;;;;;;;15.90;9.35;;;7.20;45.70;;;;;;5009291;27;117498;-85
2023/04/28 04:57:29;;;;;;;14.02;8.55;;;7.20;45.70;;;;;;5040924;27;114326;-85
2023/04/28 05:00:09;;;;;;;18.10;8.77;;;7.30;45.80;;;;;;5014029;27;114656;-86
2023/04/28 05:02:37;;;;;;;19.13;9.88;;;7.30;45.80;;;;;;5044075;27;115785;-86
2023/04/28 05:05:05;;;;;;;15.88;9.10;;;7.40;45.80;;;;;;5040973;27;114826;-86
2023/04/28 05:07:56;;;;;;;13.63;8.93;;;7.50;45.50;;;;;;5031854;27;120387;-85
2023/04/28 05:10:26;;;;;;;14.90;8.80;;;7.50;45.60;;;;;;5023366;27;114647;-86
2023/04/28 05:12:54;;;;;;;12.65;8.73;;;7.60;45.50;;;;;;5062434;27;117040;-85
2023/04/28 05:15:21;;;;;;;11.40;9.35;;;7.70;45.30;;;;;;5042230;27;118234;-82
2023/04/28 05:18:14;;;;;;;12.10;8.05;;;7.70;45.30;;;;;;5049911;27;114650;-84
2023/04/28 05:20:41;;;;;;;13.05;7.78;;;7.80;45.40;;;;;;5035423;27;114529;-85
2023/04/28 05:23:11;;;;;;;14.20;9.30;;;8.00;45.30;;;;;;5059792;27;114266;-84
2023/04/28 05:25:39;;;;;;;16.27;9.43;;;8.30;45.10;;;;;;5059660;27;116992;-85
2023/04/28 05:28:08;;;;;;;12.18;7.82;;;8.60;44.60;;;;;;5063775;27;114332;-84
2023/04/28 05:30:36;;;;;;;12.60;7.82;;;8.80;44.20;;;;;;5046337;27;114161;-84
2023/04/28 05:33:03;;;;;;;12.70;7.50;;;9.00;43.80;;;;;;5045014;27;115044;-82
2023/04/28 05:35:31;;;;;;;11.50;7.40;;;9.20;45.20;;;;;;5061966;27;114707;-81
2023/04/28 05:37:58;;;;;;;14.68;7.95;;;9.40;44.10;;;;;;5065814;27;114366;-84
2023/04/28 05:40:30;;;;;;;10.32;7.32;;;9.50;44.10;;;;;;5023876;27;114518;-83
2023/04/28 05:42:57;;;;;;;10.82;7.20;;;9.70;43.50;;;;;;5042317;27;114851;-84
2023/04/28 05:45:25;;;;;;;12.95;7.45;;;9.90;43.20;;;;;;5061945;27;115576;-82
2023/04/28 05:47:53;;;;;;;11.60;8.07;;;10.10;42.60;;;;;;5046615;27;119847;-84
2023/04/28 05:50:21;;;;;;;12.27;8.13;;;10.20;42.20;;;;;;5060589;27;114615;-83
2023/04/28 05:52:49;;;;;;;11.90;6.97;;;10.40;42.40;;;;;;5042924;27;115101;-82
2023/04/28 05:55:17;;;;;;;12.75;7.00;;;10.50;41.60;;;;;;5045111;27;116154;-83
2023/04/28 05:57:44;;;;;;;11.68;7.32;;;10.60;41.50;;;;;;5058466;27;114494;-83
2023/04/28 06:00:21;;;;;;;10.68;6.72;;;10.70;41.20;;;;;;5059578;27;114302;-83
2023/04/28 06:02:53;;;;;;;11.43;7.15;;;10.90;40.70;;;;;;5047304;27;115647;-83
2023/04/28 06:05:21;;;;;;;11.45;6.43;;;11.00;40.80;;;;;;5064392;27;114289;-83
2023/04/28 06:07:52;;;;;;;10.30;6.57;;;11.10;40.50;;;;;;5059556;27;115595;-83
2023/04/28 06:10:22;;;;;;;10.63;6.32;;;11.30;40.20;;;;;;5047988;27;114379;-82
2023/04/28 06:12:49;;;;;;;9.82;6.80;;;11.60;40.00;;;;;;5044022;27;115079;-84
2023/04/28 06:15:16;;;;;;;9.65;6.50;;;11.80;39.50;;;;;;5059434;27;115122;-83
2023/04/28 06:17:44;;;;;;;9.95;6.65;;;12.00;38.40;;;;;;5060905;27;114565;-84
2023/04/28 06:20:12;;;;;;;12.07;6.63;;;12.20;38.10;;;;;;5064788;27;114294;-84
2023/04/28 06:22:43;;;;;;;10.18;6.30;;;12.30;37.80;;;;;;5047678;27;115345;-83
2023/04/28 06:25:11;;;;;;;9.82;6.30;;;12.40;37.50;;;;;;5058875;27;116518;-83
2023/04/28 06:27:43;;;;;;;11.43;6.30;;;12.60;37.10;;;;;;5060450;27;114270;-82
2023/04/28 06:30:19;;;;;;;12.98;6.38;;;12.70;36.50;;;;;;5058701;27;114377;-84
2023/04/28 06:32:47;;;;;;;11.75;6.28;;;12.80;36.40;;;;;;5040643;27;117678;-84
2023/04/28 06:35:15;;;;;;;9.18;5.40;;;12.80;35.50;;;;;;5065107;27;114987;-82
2023/04/28 06:37:42;;;;;;;10.27;5.53;;;12.70;36.30;;;;;;5057694;27;114540;-82
2023/04/28 06:40:10;;;;;;;8.48;5.28;;;12.80;36.20;;;;;;5039093;27;114442;-82
2023/04/28 06:42:42;;;;;;;9.70;5.60;;;13.00;35.90;;;;;;5060626;27;116183;-82
2023/04/28 06:45:11;;;;;;;8.70;5.20;;;13.10;35.40;;;;;;5037730;27;116031;-83
2023/04/28 06:47:39;;;;;;;8.23;5.28;;;13.00;35.40;;;;;;5059111;27;114551;-84
2023/04/28 06:50:08;;;;;;;6.13;4.53;;;13.00;35.20;;;;;;5060215;27;114427;-84
2023/04/28 06:52:37;;;;;;;7.20;5.18;;;13.00;35.30;;;;;;5064210;27;115334;-84
2023/04/28 06:55:09;;;;;;;11.52;5.93;;;13.10;35.40;;;;;;5056517;27;115432;-84
2023/04/28 06:57:37;;;;;;;10.52;5.38;;;13.30;35.10;;;;;;5058299;27;114292;-83
2023/04/28 07:00:06;;;;;;;7.65;5.72;;;13.50;35.00;;;;;;5062378;27;114387;-83
2023/04/28 07:02:35;;;;;;;8.93;4.97;;;13.70;34.60;;;;;;5062550;27;115457;-84
2023/04/28 07:05:05;;;;;;;8.20;5.10;;;13.70;35.00;;;;;;5066981;27;114765;-85
2023/04/28 07:07:32;;;;;;;8.75;5.18;;;13.90;34.70;;;;;;5068274;27;114441;-84
2023/04/28 07:10:01;;;;;;;8.70;4.22;;;14.00;34.30;;;;;;5064534;27;114453;-83
2023/04/28 07:12:28;;;;;;;10.68;4.78;;;14.20;34.20;;;;;;5068015;27;116781;-84
2023/04/28 07:14:56;;;;;;;6.93;4.25;;;14.40;34.00;;;;;;5068672;27;114751;-84
2023/04/28 07:17:23;;;;;;;7.13;4.45;;;14.50;33.30;;;;;;5049697;27;114331;-85
2023/04/28 07:19:51;;;;;;;29.67;6.70;;;14.60;33.00;;;;;;5033494;27;114248;-84
2023/04/28 07:22:18;;;;;;;7.97;4.32;;;14.70;32.30;;;;;;5068073;27;114882;-84
2023/04/28 07:24:45;;;;;;;8.73;4.57;;;14.70;32.10;;;;;;5067658;27;114695;-84
2023/04/28 07:27:12;;;;;;;6.80;4.00;;;14.60;32.40;;;;;;5068652;27;114118;-84
2023/04/28 07:29:40;;;;;;;8.02;4.15;;;14.70;32.50;;;;;;5068889;27;115953;-85
2023/04/28 07:32:09;;;;;;;6.90;4.07;;;14.70;32.50;;;;;;5067453;27;116531;-85
2023/04/28 07:34:38;;;;;;;9.05;4.07;;;14.80;32.40;;;;;;5067621;27;114589;-84
2023/04/28 07:37:05;;;;;;;7.10;4.32;;;14.80;31.80;;;;;;5051865;27;114461;-85
2023/04/28 07:39:33;;;;;;;8.95;4.47;;;14.70;32.00;;;;;;5057511;27;114495;-84
2023/04/28 07:42:04;;;;;;;6.70;3.90;;;14.80;32.50;;;;;;5066571;27;115004;-85
2023/04/28 07:44:32;;;;;;;8.95;4.45;;;15.00;32.20;;;;;;5066789;27;117052;-85
2023/04/28 07:47:01;;;;;;;7.90;4.60;;;15.00;31.40;;;;;;5068299;27;114506;-84
2023/04/28 07:49:28;;;;;;;6.35;3.95;;;14.90;31.50;;;;;;5067193;27;114443;-86
2023/04/28 07:51:55;;;;;;;8.13;4.50;;;15.00;31.90;;;;;;5063219;27;114746;-84
2023/04/28 07:54:23;;;;;;;7.03;4.75;;;15.00;31.80;;;;;;5093082;27;114677;-83
2023/04/28 07:56:51;;;;;;;8.20;4.50;;;15.20;31.40;;;;;;5066811;27;114580;-85
2023/04/28 07:59:18;;;;;;;9.57;4.82;;;15.20;31.40;;;;;;5063929;27;116985;-85
2023/04/28 08:01:45;;;;;;;8.90;4.05;;;15.20;31.60;;;;;;5066457;27;114890;-84
2023/04/28 08:04:12;;;;;;;9.35;4.20;;;15.20;31.40;;;;;;5060931;27;114635;-85
2023/04/28 08:06:42;;;;;;;6.15;4.05;;;15.00;31.10;;;;;;5063957;27;114269;-85
2023/04/28 08:09:09;;;;;;;8.43;4.38;;;14.80;31.70;;;;;;5062093;27;114530;-85
2023/04/28 08:11:40;;;;;;;8.88;4.60;;;14.90;31.70;;;;;;5046539;27;115320;-85
2023/04/28 08:14:07;;;;;;;9.13;4.60;;;15.00;31.90;;;;;;5066418;27;115079;-84
2023/04/28 08:16:40;;;;;;;8.00;4.55;;;15.00;31.30;;;;;;5045428;27;114216;-86
2023/04/28 08:19:07;;;;;;;7.88;4.35;;;15.00;31.50;;;;;;5062608;27;114503;-85
2023/04/28 08:21:35;;;;;;;5.88;4.18;;;14.90;32.00;;;;;;5039699;27;114978;-86
2023/04/28 08:24:02;;;;;;;8.60;4.40;;;15.00;31.40;;;;;;5062151;27;114880;-85
2023/04/28 08:26:31;;;;;;;9.57;4.88;;;15.10;31.70;;;;;;5046041;27;114278;-86
2023/04/28 08:28:58;;;;;;;7.60;4.70;;;15.20;31.80;;;;;;5048798;27;114334;-86
2023/04/28 08:31:25;;;;;;;8.90;4.53;;;15.30;31.90;;;;;;5047822;27;117836;-86
2023/04/28 08:33:54;;;;;;;9.05;4.90;;;15.30;31.40;;;;;;5015024;27;117464;-86
2023/04/28 08:36:23;;;;;;;6.63;4.40;;;15.30;31.60;;;;;;5061273;27;114490;-85
2023/04/28 08:38:52;;;;;;;8.05;4.57;;;15.40;31.30;;;;;;5049132;27;114286;-84
2023/04/28 08:41:21;;;;;;;8.43;4.20;;;15.40;31.30;;;;;;5043991;27;115465;-85
2023/04/28 08:43:48;;;;;;;12.40;5.40;;;15.50;30.80;;;;;;5070930;27;114206;-86
2023/04/28 08:46:15;;;;;;;8.27;5.38;;;15.60;30.80;;;;;;5059428;27;114574;-85
2023/04/28 08:48:44;;;;;;;9.15;4.40;;;15.50;30.80;;;;;;5015483;27;114380;-85
2023/04/28 08:51:27;;;;;;;8.15;4.55;;;15.60;30.60;;;;;;5049772;27;114870;-84
2023/04/28 08:53:54;;;;;;;7.85;4.85;;;15.60;31.10;;;;;;5034197;27;114648;-85
2023/04/28 08:56:25;;;;;;;7.90;5.10;;;15.60;31.10;;;;;;5016540;27;114480;-83
2023/04/28 08:58:53;;;;;;;11.43;5.35;;;15.60;31.50;;;;;;5036475;27;114412;-84
2023/04/28 09:01:24;;;;;;;9.55;5.20;;;15.80;30.60;;;;;;5066202;27;114905;-85
2023/04/28 09:03:52;;;;;;;9.00;4.38;;;15.70;29.80;;;;;;5031957;27;114675;-84
2023/04/28 09:06:21;;;;;;;9.13;4.38;;;15.60;30.10;;;;;;5046637;27;114430;-85
2023/04/28 09:08:49;;;;;;;6.13;4.20;;;15.40;30.00;;;;;;5031902;27;114514;-86
2023/04/28 09:11:20;;;;;;;7.55;4.30;;;15.30;29.80;;;;;;5053134;27;116334;-85
2023/04/28 09:13:48;;;;;;;8.70;4.25;;;15.20;30.00;;;;;;5080712;27;114656;-84
2023/04/28 09:16:15;;;;;;;8.32;4.30;;;15.20;30.30;;;;;;5063715;27;114636;-84
2023/04/28 09:18:55;;;;;;;8.27;4.28;;;15.30;30.70;;;;;;5069799;27;114271;-85
2023/04/28 09:21:23;;;;;;;8.50;4.15;;;15.50;30.60;;;;;;5018895;27;118027;-85
2023/04/28 09:23:50;;;;;;;9.02;4.40;;;15.70;30.70;;;;;;5048504;27;115743;-85
2023/04/28 09:26:18;;;;;;;7.13;3.70;;;15.90;30.60;;;;;;5048934;27;114323;-87
2023/04/28 09:28:45;;;;;;;7.88;4.20;;;16.10;29.90;;;;;;5049731;27;114479;-86
2023/04/28 09:31:27;;;;;;;8.15;4.13;;;16.10;29.30;;;;;;5061427;27;117906;-86
2023/04/28 09:33:58;;;;;;;8.50;3.88;;;16.00;29.70;;;;;;5015047;27;116298;-85
2023/04/28 09:36:28;;;;;;;7.13;4.05;;;15.90;29.30;;;;;;5059991;27;114425;-86
2023/04/28 09:38:59;;;;;;;9.10;3.90;;;15.70;29.90;;;;;;5066383;27;114560;-85
2023/04/28 09:41:39;;;;;;;8.15;3.88;;;15.70;30.20;;;;;;5019170;27;117927;-84
2023/04/28 09:44:14;;;;;;;7.20;4.00;;;15.80;29.70;;;;;;5029134;27;116804;-85
2023/04/28 09:46:43;;;;;;;8.65;4.20;;;15.70;29.90;;;;;;5078979;27;114194;-85
2023/04/28 09:49:11;;;;;;;7.65;4.20;;;15.70;30.00;;;;;;5035862;27;114400;-85
2023/04/28 09:51:39;;;;;;;7.93;3.80;;;15.80;30.10;;;;;;5029595;27;115173;-85
2023/04/28 09:54:06;;;;;;;7.18;4.60;;;16.00;30.00;;;;;;5048670;27;114783;-86
2023/04/28 09:56:37;;;;;;;6.88;4.22;;;16.10;30.20;;;;;;5063219;27;114329;-84
2023/04/28 09:59:09;;;;;;;7.70;4.30;;;16.00;30.00;;;;;;5067937;27;114247;-85
2023/04/28 10:01:39;;;;;;;8.90;4.50;;;16.10;29.50;;;;;;5084554;27;115474;-85
2023/04/28 10:04:07;;;;;;;7.20;4.38;;;15.90;29.00;;;;;;5085238;27;115350;-85
2023/04/28 10:06:35;;;;;;;6.00;4.00;;;15.70;29.80;;;;;;5067208;27;114260;-84
2023/04/28 10:09:04;;;;;;;8.25;4.35;;;15.70;30.10;;;;;;5032190;27;114218;-85
2023/04/28 10:11:32;;;;;;;7.88;3.88;;;15.80;29.90;;;;;;5027496;27;115650;-86
2023/04/28 10:14:00;;;;;;;6.68;3.80;;;15.80;30.20;;;;;;5048415;27;114719;-86
2023/04/28 10:16:29;;;;;;;8.23;4.13;;;15.70;29.50;;;;;;5086354;27;114680;-86
2023/04/28 10:18:56;;;;;;;7.30;3.78;;;15.70;29.20;;;;;;5060656;27;114323;-86
2023/04/28 10:21:23;;;;;;;5.00;3.22;;;15.60;29.90;;;;;;5038807;27;115149;-84
2023/04/28 10:24:21;;;;;;;5.97;3.42;;;15.70;30.30;;;;;;5016520;27;117210;-84
2023/04/28 10:27:02;;;;;;;7.32;3.85;;;15.90;30.60;;;;;;5033654;27;114239;-83
2023/04/28 10:29:30;;;;;;;9.00;3.40;;;16.10;30.30;;;;;;5034157;27;114468;-86
2023/04/28 10:32:16;;;;;;;8.20;3.97;;;16.20;29.90;;;;;;5032326;27;114855;-85
2023/04/28 10:34:44;;;;;;;10.50;3.47;;;16.30;29.50;;;;;;5049015;27;117050;-85
2023/04/28 10:37:13;;;;;;;6.30;3.35;;;16.10;29.20;;;;;;4998512;27;116907;-84
2023/04/28 10:40:05;;;;;;;7.65;3.10;;;15.90;29.60;;;;;;5032499;27;114201;-85
2023/04/28 10:42:55;;;;;;;5.43;3.35;;;15.90;29.80;;;;;;5075927;27;115718;-84
2023/04/28 10:45:47;;;;;;;5.80;3.10;;;15.90;30.10;;;;;;5044519;27;114988;-85
2023/04/28 10:48:15;;;;;;;7.00;2.92;;;15.90;29.90;;;;;;5064624;27;114160;-86
2023/04/28 10:51:05;;;;;;;6.03;2.95;;;15.90;29.60;;;;;;5014889;27;114707;-85
2023/04/28 10:53:43;;;;;;;7.35;2.90;;;16.10;29.70;;;;;;5043396;27;117762;-84
2023/04/28 10:56:23;;;;;;;6.85;2.97;;;16.00;29.80;;;;;;5031273;27;116046;-85
2023/04/28 10:58:55;;;;;;;5.57;2.97;;;16.00;30.00;;;;;;5076230;27;114172;-85
2023/04/28 11:01:33;;;;;;;7.72;2.70;;;16.10;30.40;;;;;;5069460;27;114264;-86
2023/04/28 11:04:15;;;;;;;8.55;2.90;;;16.20;30.20;;;;;;5045145;27;115033;-86
2023/04/28 11:06:44;;;;;;;7.47;3.15;;;16.30;29.90;;;;;;5036102;27;118116;-85
2023/04/28 11:09:14;;;;;;;7.93;3.17;;;16.50;29.80;;;;;;5032707;27;114424;-85
2023/04/28 11:12:00;;;;;;;7.40;2.95;;;16.60;30.00;;;;;;5051611;27;114305;-84
2023/04/28 11:14:28;;;;;;;4.15;2.03;;;16.70;29.50;;;;;;5058788;27;118226;-84
2023/04/28 11:17:01;;;;;;;5.82;2.35;;;16.80;29.50;;;;;;5049479;27;117882;-85
2023/04/28 11:19:36;;;;;;;6.03;2.47;;;17.00;28.90;;;;;;5038098;27;114253;-86
2023/04/28 11:22:10;;;;;;;7.72;3.28;;;17.10;29.30;;;;;;5047558;27;114701;-85
2023/04/28 11:24:37;;;;;;;5.10;2.60;;;17.30;29.10;;;;;;5039765;27;114272;-85
2023/04/28 11:27:04;;;;;;;5.43;2.47;;;17.50;28.50;;;;;;5073768;27;114703;-85
2023/04/28 11:29:34;;;;;;;5.40;2.65;;;17.50;28.60;;;;;;5058692;27;114477;-85
2023/04/28 11:32:03;;;;;;;5.85;2.60;;;17.70;28.50;;;;;;5044027;27;114412;-85
2023/04/28 11:34:31;;;;;;;6.18;2.70;;;17.70;28.10;;;;;;5046228;27;115142;-84
2023/04/28 11:36:59;;;;;;;5.35;2.55;;;17.70;28.30;;;;;;5068352;27;114714;-85
2023/04/28 11:39:29;;;;;;;5.80;2.75;;;17.80;28.30;;;;;;5026277;27;114300;-85
2023/04/28 11:42:08;;;;;;;5.72;2.58;;;17.80;28.10;;;;;;4998083;27;115879;-85
2023/04/28 11:44:36;;;;;;;6.43;2.67;;;17.90;27.60;;;;;;5013048;27;118523;-84
2023/04/28 11:47:03;;;;;;;4.70;2.30;;;17.80;27.50;;;;;;5027269;27;117755;-85
2023/04/28 11:49:44;;;;;;;7.40;2.78;;;17.80;27.70;;;;;;5027586;27;114406;-85
2023/04/28 11:52:11;;;;;;;6.30;2.53;;;17.80;28.20;;;;;;5065258;27;114400;-83
2023/04/28 11:54:41;;;;;;;5.35;2.60;;;17.80;28.40;;;;;;5070055;27;116258;-84
2023/04/28 11:57:18;;;;;;;5.68;2.58;;;17.80;28.40;;;;;;5071083;27;114947;-84
2023/04/28 11:59:46;;;;;;;5.82;2.83;;;17.90;28.60;;;;;;5055211;27;114497;-84
2023/04/28 12:02:26;;;;;;;5.15;2.40;;;18.00;28.30;;;;;;5055244;27;114276;-84
2023/04/28 12:04:54;;;;;;;;;;;18.00;28.20;;;;;;5055874;27;115029;-83
2023/04/28 12:07:22;;;;;;;6.65;2.30;;;18.00;29.30;;;;;;5068257;27;114588;-86
2023/04/28 12:10:11;;;;;;;5.55;2.53;;;18.00;28.60;;;;;;5069367;27;114311;-85
2023/04/28 12:12:41;;;;;;;5.72;3.10;;;18.10;28.50;;;;;;5053705;27;115449;-84
2023/04/28 12:15:18;;;;;;;6.05;2.90;;;18.10;28.10;;;;;;5062590;27;118768;-85
2023/04/28 12:17:47;;;;;;;4.22;2.70;;;18.10;28.30;;;;;;5056202;27;114619;-85
2023/04/28 12:20:34;;;;;;;4.95;2.25;;;18.10;28.70;;;;;;5057606;27;114553;-84
2023/04/28 12:23:02;;;;;;;5.18;2.67;;;18.20;28.40;;;;;;5029137;27;114556;-84
2023/04/28 12:25:29;;;;;;;9.85;2.90;;;18.10;28.30;;;;;;5044935;27;115210;-83
2023/04/28 12:28:06;;;;;;;7.13;2.60;;;18.20;28.00;;;;;;5050124;27;118088;-84
2023/04/28 12:30:38;;;;;;;6.30;2.60;;;18.30;27.90;;;;;;5069540;27;114742;-84
2023/04/28 12:33:05;;;;;;;5.53;2.70;;;18.20;27.50;;;;;;5069945;27;114260;-83
2023/04/28 12:35:32;;;;;;;4.05;2.75;;;18.20;28.00;;;;;;5021588;27;119517;-86
2023/04/28 12:37:59;;;;;;;4.72;2.60;;;18.20;27.40;;;;;;5066229;27;114604;-84
2023/04/28 12:40:27;;;;;;;6.60;2.78;;;18.00;27.50;;;;;;5066833;27;114423;-85
2023/04/28 12:42:55;;;;;;;5.43;2.60;;;17.80;27.90;;;;;;5048018;27;115247;-85
2023/04/28 12:45:23;;;;;;;5.72;2.60;;;17.80;27.90;;;;;;5047286;27;115172;-86
2023/04/28 12:47:50;;;;;;;6.95;2.90;;;17.90;28.10;;;;;;5031065;27;118028;-84